TimeCDT,TemperatureF,Dew PointF,Humidity,Sea Level PressureIn,VisibilityMPH,Wind Direction,Wind SpeedMPH,Gust SpeedMPH,PrecipitationIn,Events,Conditions,WindDirDegrees,DateUTC
12:53 AM,51.8,46.4,82,30.16,10.0,NNW,9.2,-,N/A,,Clear,340,2013-05-10 05:53:00
1:53 AM,50.0,44.1,80,30.06,10.0,NNW,10.4,-,N/A,,Clear,340,2013-05-10 06:53:00
2:53 AM,50.0,44.1,80,30.06,10.0,NNW,9.2,-,N/A,,Mostly Cloudy,330,2013-05-10 07:53:00
3:53 AM,48.0,44.1,86,30.04,10.0,North,12.7,-,N/A,,Clear,360,2013-05-10 08:53:00
4:53 AM,48.0,44.1,86,30.05,10.0,North,10.4,-,N/A,,Clear,10,2013-05-10 09:53:00
5:53 AM,48.0,44.1,86,30.05,10.0,North,10.4,-,N/A,,Clear,360,2013-05-10 10:53:00
6:53 AM,46.4,42.8,87,30.16,10.0,North,9.2,-,N/A,,Clear,350,2013-05-10 11:53:00
7:53 AM,48.0,43.0,83,30.13,10.0,North,9.2,-,N/A,,Clear,360,2013-05-10 12:53:00
8:18 AM,48.2,44.6,87,30.20,10.0,North,11.5,-,N/A,,Scattered Clouds,360,2013-05-10 13:18:00
8:26 AM,50.0,46.4,87,30.20,9.0,North,10.4,-,N/A,,Mostly Cloudy,10,2013-05-10 13:26:00
8:49 AM,51.8,46.4,82,30.20,8.0,NNE,9.2,-,N/A,,Mostly Cloudy,20,2013-05-10 13:49:00
8:53 AM,52.0,46.9,83,30.14,8.0,NNE,8.1,-,N/A,,Mostly Cloudy,20,2013-05-10 13:53:00
9:00 AM,53.6,46.4,77,30.20,9.0,NNE,10.4,-,N/A,,Partly Cloudy,20,2013-05-10 14:00:00
9:29 AM,53.6,46.4,77,30.22,10.0,NNE,12.7,-,N/A,,Mostly Cloudy,20,2013-05-10 14:29:00
9:53 AM,54.0,46.9,77,30.16,10.0,NNE,11.5,-,N/A,,Overcast,30,2013-05-10 14:53:00
10:46 AM,55.4,46.4,72,30.23,10.0,NE,9.2,-,N/A,,Overcast,40,2013-05-10 15:46:00
10:53 AM,55.9,46.0,69,30.15,10.0,NE,8.1,-,N/A,,Overcast,40,2013-05-10 15:53:00
11:21 AM,55.4,46.4,72,30.23,10.0,North,11.5,-,N/A,,Overcast,10,2013-05-10 16:21:00
11:40 AM,55.4,46.4,72,30.23,10.0,NE,12.7,-,N/A,,Overcast,50,2013-05-10 16:40:00
11:53 AM,57.0,46.9,69,30.16,10.0,NE,12.7,-,N/A,,Overcast,50,2013-05-10 16:53:00
12:53 PM,59.0,46.0,62,30.15,10.0,NE,11.5,-,N/A,,Overcast,40,2013-05-10 17:53:00
1:53 PM,62.1,45.0,53,30.13,10.0,NE,11.5,-,N/A,,Partly Cloudy,40,2013-05-10 18:53:00
2:53 PM,64.0,43.0,46,30.11,10.0,ENE,13.8,19.6,N/A,,Partly Cloudy,60,2013-05-10 19:53:00
3:53 PM,64.9,43.0,45,30.09,10.0,ENE,15.0,19.6,N/A,,Scattered Clouds,60,2013-05-10 20:53:00
4:53 PM,66.0,39.9,38,30.07,10.0,NE,11.5,-,N/A,,Mostly Cloudy,50,2013-05-10 21:53:00
5:53 PM,64.9,42.1,43,30.07,10.0,NE,11.5,-,0.03,,Scattered Clouds,50,2013-05-10 22:53:00
6:53 PM,64.9,39.0,39,30.08,10.0,NE,10.4,-,N/A,,Partly Cloudy,50,2013-05-10 23:53:00
7:53 PM,64.9,39.9,40,30.08,10.0,NE,5.8,-,N/A,,Mostly Cloudy,50,2013-05-11 00:53:00
8:53 PM,61.0,43.0,52,30.10,10.0,East,4.6,-,N/A,,Clear,90,2013-05-11 01:53:00
9:53 PM,59.0,42.1,53,30.13,10.0,ENE,3.5,-,N/A,,Clear,60,2013-05-11 02:53:00
10:53 PM,55.9,44.1,64,30.16,10.0,Calm,Calm,-,N/A,,Clear,0,2013-05-11 03:53:00
11:53 PM,55.0,44.1,67,30.18,10.0,North,9.2,-,N/A,,Clear,360,2013-05-11 04:53:00